sensor_id;sensor_type;location;lat;lon;timestamp;temperature;humidity
4908;DHT22;64375;51.540;7.364;2024-02-26T00:00:38;8.60;96.90
4908;DHT22;64375;51.540;7.364;2024-02-26T00:03:20;8.50;96.90
4908;DHT22;64375;51.540;7.364;2024-02-26T00:05:49;8.50;97.10
4908;DHT22;64375;51.540;7.364;2024-02-26T00:08:17;8.50;97.40
4908;DHT22;64375;51.540;7.364;2024-02-26T00:10:51;8.50;96.50
4908;DHT22;64375;51.540;7.364;2024-02-26T00:13:24;8.40;97.00
4908;DHT22;64375;51.540;7.364;2024-02-26T00:15:52;8.50;98.30
4908;DHT22;64375;51.540;7.364;2024-02-26T00:18:19;8.50;98.30
4908;DHT22;64375;51.540;7.364;2024-02-26T00:20:52;8.60;96.50
4908;DHT22;64375;51.540;7.364;2024-02-26T00:23:23;8.50;96.70
4908;DHT22;64375;51.540;7.364;2024-02-26T00:25:57;8.50;96.70
4908;DHT22;64375;51.540;7.364;2024-02-26T00:28:28;8.40;97.30
4908;DHT22;64375;51.540;7.364;2024-02-26T00:31:01;8.40;96.90
4908;DHT22;64375;51.540;7.364;2024-02-26T00:33:29;8.40;97.30
4908;DHT22;64375;51.540;7.364;2024-02-26T00:36:06;8.40;97.40
4908;DHT22;64375;51.540;7.364;2024-02-26T00:38:35;8.50;97.50
4908;DHT22;64375;51.540;7.364;2024-02-26T00:41:09;8.50;96.70
4908;DHT22;64375;51.540;7.364;2024-02-26T00:43:43;8.40;98.20
4908;DHT22;64375;51.540;7.364;2024-02-26T00:46:13;8.40;97.80
4908;DHT22;64375;51.540;7.364;2024-02-26T00:48:44;8.40;96.90
4908;DHT22;64375;51.540;7.364;2024-02-26T00:51:13;8.30;99.10
4908;DHT22;64375;51.540;7.364;2024-02-26T00:53:45;8.30;98.20
4908;DHT22;64375;51.540;7.364;2024-02-26T00:56:13;8.40;97.60
4908;DHT22;64375;51.540;7.364;2024-02-26T00:58:41;8.50;97.20
4908;DHT22;64375;51.540;7.364;2024-02-26T01:01:15;8.40;97.40
4908;DHT22;64375;51.540;7.364;2024-02-26T01:03:46;8.40;97.10
4908;DHT22;64375;51.540;7.364;2024-02-26T01:06:32;8.40;97.10
4908;DHT22;64375;51.540;7.364;2024-02-26T01:09:03;8.30;97.30
4908;DHT22;64375;51.540;7.364;2024-02-26T01:11:34;8.30;97.80
4908;DHT22;64375;51.540;7.364;2024-02-26T01:14:02;8.30;97.90
4908;DHT22;64375;51.540;7.364;2024-02-26T01:16:33;8.30;98.10
4908;DHT22;64375;51.540;7.364;2024-02-26T01:19:04;8.40;97.30
4908;DHT22;64375;51.540;7.364;2024-02-26T01:21:36;8.40;97.10
4908;DHT22;64375;51.540;7.364;2024-02-26T01:24:08;8.40;96.90
4908;DHT22;64375;51.540;7.364;2024-02-26T01:26:36;8.40;98.00
4908;DHT22;64375;51.540;7.364;2024-02-26T01:29:16;8.30;99.70
4908;DHT22;64375;51.540;7.364;2024-02-26T01:31:44;8.40;98.60
4908;DHT22;64375;51.540;7.364;2024-02-26T01:34:14;8.40;97.60
4908;DHT22;64375;51.540;7.364;2024-02-26T01:36:43;8.40;97.50
4908;DHT22;64375;51.540;7.364;2024-02-26T01:39:11;8.40;98.10
4908;DHT22;64375;51.540;7.364;2024-02-26T01:41:42;8.50;98.10
4908;DHT22;64375;51.540;7.364;2024-02-26T01:44:14;8.50;97.90
4908;DHT22;64375;51.540;7.364;2024-02-26T01:46:48;8.60;99.90
4908;DHT22;64375;51.540;7.364;2024-02-26T01:49:19;8.80;99.90
4908;DHT22;64375;51.540;7.364;2024-02-26T01:51:52;8.80;97.90
4908;DHT22;64375;51.540;7.364;2024-02-26T01:54:24;8.80;97.30
4908;DHT22;64375;51.540;7.364;2024-02-26T01:56:55;8.80;97.20
4908;DHT22;64375;51.540;7.364;2024-02-26T01:59:27;8.80;96.50
4908;DHT22;64375;51.540;7.364;2024-02-26T02:01:59;8.60;96.90
4908;DHT22;64375;51.540;7.364;2024-02-26T02:04:28;8.60;97.40
4908;DHT22;64375;51.540;7.364;2024-02-26T02:07:07;8.60;97.30
4908;DHT22;64375;51.540;7.364;2024-02-26T02:09:38;8.60;96.60
4908;DHT22;64375;51.540;7.364;2024-02-26T02:12:18;8.60;96.40
4908;DHT22;64375;51.540;7.364;2024-02-26T02:14:49;8.60;97.00
4908;DHT22;64375;51.540;7.364;2024-02-26T02:17:17;8.50;97.00
4908;DHT22;64375;51.540;7.364;2024-02-26T02:19:55;8.50;96.90
4908;DHT22;64375;51.540;7.364;2024-02-26T02:22:35;8.50;96.70
4908;DHT22;64375;51.540;7.364;2024-02-26T02:25:06;8.50;96.60
4908;DHT22;64375;51.540;7.364;2024-02-26T02:27:42;8.40;98.40
4908;DHT22;64375;51.540;7.364;2024-02-26T02:30:11;8.40;98.20
4908;DHT22;64375;51.540;7.364;2024-02-26T02:32:40;8.40;97.30
4908;DHT22;64375;51.540;7.364;2024-02-26T02:35:09;8.50;96.70
4908;DHT22;64375;51.540;7.364;2024-02-26T02:37:38;8.40;97.10
4908;DHT22;64375;51.540;7.364;2024-02-26T02:40:09;8.40;98.10
4908;DHT22;64375;51.540;7.364;2024-02-26T02:42:42;8.40;98.40
4908;DHT22;64375;51.540;7.364;2024-02-26T02:45:10;8.40;96.80
4908;DHT22;64375;51.540;7.364;2024-02-26T02:47:38;8.50;97.30
4908;DHT22;64375;51.540;7.364;2024-02-26T02:50:06;8.40;97.20
4908;DHT22;64375;51.540;7.364;2024-02-26T02:52:42;8.50;96.70
4908;DHT22;64375;51.540;7.364;2024-02-26T02:55:10;8.50;96.50
4908;DHT22;64375;51.540;7.364;2024-02-26T02:57:40;8.40;97.70
4908;DHT22;64375;51.540;7.364;2024-02-26T03:00:12;8.50;97.80
4908;DHT22;64375;51.540;7.364;2024-02-26T03:02:41;8.60;96.90
4908;DHT22;64375;51.540;7.364;2024-02-26T03:05:09;8.60;96.70
4908;DHT22;64375;51.540;7.364;2024-02-26T03:07:53;8.50;97.20
4908;DHT22;64375;51.540;7.364;2024-02-26T03:10:21;8.60;96.40
4908;DHT22;64375;51.540;7.364;2024-02-26T03:12:49;8.50;96.60
4908;DHT22;64375;51.540;7.364;2024-02-26T03:15:17;8.40;96.80
4908;DHT22;64375;51.540;7.364;2024-02-26T03:17:49;8.40;96.70
4908;DHT22;64375;51.540;7.364;2024-02-26T03:20:23;8.40;97.00
4908;DHT22;64375;51.540;7.364;2024-02-26T03:22:55;8.30;97.50
4908;DHT22;64375;51.540;7.364;2024-02-26T03:25:23;8.40;97.00
4908;DHT22;64375;51.540;7.364;2024-02-26T03:27:54;8.40;97.10
4908;DHT22;64375;51.540;7.364;2024-02-26T03:30:22;8.40;98.40
4908;DHT22;64375;51.540;7.364;2024-02-26T03:32:50;8.50;98.10
4908;DHT22;64375;51.540;7.364;2024-02-26T03:35:31;8.50;96.80
4908;DHT22;64375;51.540;7.364;2024-02-26T03:38:01;8.60;96.90
4908;DHT22;64375;51.540;7.364;2024-02-26T03:40:47;8.50;96.70
4908;DHT22;64375;51.540;7.364;2024-02-26T03:43:21;8.40;97.70
4908;DHT22;64375;51.540;7.364;2024-02-26T03:45:53;8.40;97.80
4908;DHT22;64375;51.540;7.364;2024-02-26T03:48:24;8.40;98.50
4908;DHT22;64375;51.540;7.364;2024-02-26T03:51:01;8.40;98.60
4908;DHT22;64375;51.540;7.364;2024-02-26T03:53:33;8.40;97.40
4908;DHT22;64375;51.540;7.364;2024-02-26T03:56:03;8.40;97.90
4908;DHT22;64375;51.540;7.364;2024-02-26T03:58:31;8.30;97.90
4908;DHT22;64375;51.540;7.364;2024-02-26T04:01:09;8.20;98.40
4908;DHT22;64375;51.540;7.364;2024-02-26T04:03:37;8.20;98.30
4908;DHT22;64375;51.540;7.364;2024-02-26T04:06:11;8.20;98.30
4908;DHT22;64375;51.540;7.364;2024-02-26T04:08:45;8.20;99.30
4908;DHT22;64375;51.540;7.364;2024-02-26T04:11:13;8.10;99.30
4908;DHT22;64375;51.540;7.364;2024-02-26T04:13:47;8.10;99.50
4908;DHT22;64375;51.540;7.364;2024-02-26T04:16:18;8.10;99.60
4908;DHT22;64375;51.540;7.364;2024-02-26T04:18:49;8.00;99.90
4908;DHT22;64375;51.540;7.364;2024-02-26T04:21:19;8.00;99.90
4908;DHT22;64375;51.540;7.364;2024-02-26T04:23:52;8.00;99.90
4908;DHT22;64375;51.540;7.364;2024-02-26T04:26:24;8.00;99.90
4908;DHT22;64375;51.540;7.364;2024-02-26T04:28:52;8.10;99.90
4908;DHT22;64375;51.540;7.364;2024-02-26T04:31:20;8.10;99.90
4908;DHT22;64375;51.540;7.364;2024-02-26T04:33:48;8.10;99.90
4908;DHT22;64375;51.540;7.364;2024-02-26T04:36:18;8.10;99.90
4908;DHT22;64375;51.540;7.364;2024-02-26T04:38:46;8.20;99.90
4908;DHT22;64375;51.540;7.364;2024-02-26T04:41:16;8.10;99.90
4908;DHT22;64375;51.540;7.364;2024-02-26T04:43:47;8.10;99.90
4908;DHT22;64375;51.540;7.364;2024-02-26T04:46:15;8.00;99.90
4908;DHT22;64375;51.540;7.364;2024-02-26T04:48:43;8.00;99.90
4908;DHT22;64375;51.540;7.364;2024-02-26T04:51:16;7.90;99.90
4908;DHT22;64375;51.540;7.364;2024-02-26T04:53:45;7.90;99.90
4908;DHT22;64375;51.540;7.364;2024-02-26T04:56:17;8.00;99.90
4908;DHT22;64375;51.540;7.364;2024-02-26T04:58:45;8.00;99.90
4908;DHT22;64375;51.540;7.364;2024-02-26T05:01:15;7.90;99.90
4908;DHT22;64375;51.540;7.364;2024-02-26T05:03:44;7.90;99.90
4908;DHT22;64375;51.540;7.364;2024-02-26T05:06:12;7.90;99.90
4908;DHT22;64375;51.540;7.364;2024-02-26T05:08:40;7.90;99.90
4908;DHT22;64375;51.540;7.364;2024-02-26T05:11:08;8.00;99.90
4908;DHT22;64375;51.540;7.364;2024-02-26T05:13:39;8.00;99.90
4908;DHT22;64375;51.540;7.364;2024-02-26T05:16:07;8.00;99.90
4908;DHT22;64375;51.540;7.364;2024-02-26T05:18:47;7.80;99.90
4908;DHT22;64375;51.540;7.364;2024-02-26T05:21:15;7.70;99.90
4908;DHT22;64375;51.540;7.364;2024-02-26T05:23:46;7.80;99.90
4908;DHT22;64375;51.540;7.364;2024-02-26T05:26:27;7.80;99.90
4908;DHT22;64375;51.540;7.364;2024-02-26T05:28:57;7.80;99.90
4908;DHT22;64375;51.540;7.364;2024-02-26T05:31:32;7.80;99.90
4908;DHT22;64375;51.540;7.364;2024-02-26T05:34:03;7.80;99.90
4908;DHT22;64375;51.540;7.364;2024-02-26T05:36:37;7.80;99.90
4908;DHT22;64375;51.540;7.364;2024-02-26T05:39:09;7.80;99.90
4908;DHT22;64375;51.540;7.364;2024-02-26T05:41:47;7.80;99.90
4908;DHT22;64375;51.540;7.364;2024-02-26T05:44:17;7.70;99.90
4908;DHT22;64375;51.540;7.364;2024-02-26T05:46:45;7.60;99.90
4908;DHT22;64375;51.540;7.364;2024-02-26T05:49:23;7.70;99.90
4908;DHT22;64375;51.540;7.364;2024-02-26T05:51:54;7.80;99.90
4908;DHT22;64375;51.540;7.364;2024-02-26T05:54:22;7.80;99.90
4908;DHT22;64375;51.540;7.364;2024-02-26T05:56:56;7.80;99.90
4908;DHT22;64375;51.540;7.364;2024-02-26T05:59:26;7.70;99.90
4908;DHT22;64375;51.540;7.364;2024-02-26T06:01:54;7.60;99.90
4908;DHT22;64375;51.540;7.364;2024-02-26T06:04:22;7.70;99.90
4908;DHT22;64375;51.540;7.364;2024-02-26T06:06:50;7.80;99.90
4908;DHT22;64375;51.540;7.364;2024-02-26T06:09:18;7.80;99.90
4908;DHT22;64375;51.540;7.364;2024-02-26T06:11:46;7.70;99.90
4908;DHT22;64375;51.540;7.364;2024-02-26T06:14:14;7.70;99.90
4908;DHT22;64375;51.540;7.364;2024-02-26T06:16:54;7.70;99.90
4908;DHT22;64375;51.540;7.364;2024-02-26T06:19:25;7.80;99.90
4908;DHT22;64375;51.540;7.364;2024-02-26T06:21:56;7.90;99.90
4908;DHT22;64375;51.540;7.364;2024-02-26T06:24:27;7.90;99.90
4908;DHT22;64375;51.540;7.364;2024-02-26T06:26:55;7.90;99.90
4908;DHT22;64375;51.540;7.364;2024-02-26T06:29:25;7.90;99.90
4908;DHT22;64375;51.540;7.364;2024-02-26T06:32:04;7.90;99.90
4908;DHT22;64375;51.540;7.364;2024-02-26T06:34:35;7.80;99.90
4908;DHT22;64375;51.540;7.364;2024-02-26T06:37:14;7.80;99.90
4908;DHT22;64375;51.540;7.364;2024-02-26T06:39:42;7.80;99.90
4908;DHT22;64375;51.540;7.364;2024-02-26T06:42:13;7.70;99.90
4908;DHT22;64375;51.540;7.364;2024-02-26T06:44:47;7.70;99.90
4908;DHT22;64375;51.540;7.364;2024-02-26T06:47:23;7.70;99.90
4908;DHT22;64375;51.540;7.364;2024-02-26T06:49:52;7.70;99.90
4908;DHT22;64375;51.540;7.364;2024-02-26T06:52:27;7.80;99.90
4908;DHT22;64375;51.540;7.364;2024-02-26T06:55:02;7.80;99.90
4908;DHT22;64375;51.540;7.364;2024-02-26T06:57:29;7.90;99.90
4908;DHT22;64375;51.540;7.364;2024-02-26T07:00:00;8.00;99.90
4908;DHT22;64375;51.540;7.364;2024-02-26T07:02:46;8.00;99.90
4908;DHT22;64375;51.540;7.364;2024-02-26T07:05:16;8.10;99.90
4908;DHT22;64375;51.540;7.364;2024-02-26T07:07:44;8.00;99.90
4908;DHT22;64375;51.540;7.364;2024-02-26T07:10:12;8.00;99.90
4908;DHT22;64375;51.540;7.364;2024-02-26T07:12:40;8.00;99.90
4908;DHT22;64375;51.540;7.364;2024-02-26T07:15:09;8.00;99.90
4908;DHT22;64375;51.540;7.364;2024-02-26T07:17:41;8.00;99.90
4908;DHT22;64375;51.540;7.364;2024-02-26T07:20:16;8.00;99.90
4908;DHT22;64375;51.540;7.364;2024-02-26T07:22:45;8.10;99.90
4908;DHT22;64375;51.540;7.364;2024-02-26T07:25:13;8.00;99.90
4908;DHT22;64375;51.540;7.364;2024-02-26T07:27:42;7.90;99.90
4908;DHT22;64375;51.540;7.364;2024-02-26T07:30:14;7.90;99.90
4908;DHT22;64375;51.540;7.364;2024-02-26T07:32:44;7.80;99.90
4908;DHT22;64375;51.540;7.364;2024-02-26T07:35:23;7.70;99.90
4908;DHT22;64375;51.540;7.364;2024-02-26T07:37:54;7.70;99.90
4908;DHT22;64375;51.540;7.364;2024-02-26T07:40:22;7.60;99.90
4908;DHT22;64375;51.540;7.364;2024-02-26T07:42:50;7.60;99.90
4908;DHT22;64375;51.540;7.364;2024-02-26T07:45:27;7.60;99.90
4908;DHT22;64375;51.540;7.364;2024-02-26T07:47:56;7.60;99.90
4908;DHT22;64375;51.540;7.364;2024-02-26T07:50:24;7.60;99.90
4908;DHT22;64375;51.540;7.364;2024-02-26T07:52:55;7.60;99.90
4908;DHT22;64375;51.540;7.364;2024-02-26T07:55:29;7.70;99.90
4908;DHT22;64375;51.540;7.364;2024-02-26T07:57:59;7.70;99.90
4908;DHT22;64375;51.540;7.364;2024-02-26T08:00:34;7.70;99.90
4908;DHT22;64375;51.540;7.364;2024-02-26T08:03:04;7.70;99.90
4908;DHT22;64375;51.540;7.364;2024-02-26T08:05:32;7.70;99.90
4908;DHT22;64375;51.540;7.364;2024-02-26T08:08:00;7.80;99.90
4908;DHT22;64375;51.540;7.364;2024-02-26T08:10:33;7.80;99.90
4908;DHT22;64375;51.540;7.364;2024-02-26T08:13:01;7.80;99.90
4908;DHT22;64375;51.540;7.364;2024-02-26T08:15:32;7.80;99.90
4908;DHT22;64375;51.540;7.364;2024-02-26T08:18:03;7.80;99.90
4908;DHT22;64375;51.540;7.364;2024-02-26T08:20:31;7.80;99.90
4908;DHT22;64375;51.540;7.364;2024-02-26T08:22:59;7.80;99.90
4908;DHT22;64375;51.540;7.364;2024-02-26T08:25:36;7.80;99.90
4908;DHT22;64375;51.540;7.364;2024-02-26T08:28:07;7.70;99.90
4908;DHT22;64375;51.540;7.364;2024-02-26T08:30:44;7.80;99.90
4908;DHT22;64375;51.540;7.364;2024-02-26T08:33:14;7.80;99.90
4908;DHT22;64375;51.540;7.364;2024-02-26T08:35:42;7.90;99.90
4908;DHT22;64375;51.540;7.364;2024-02-26T08:38:10;7.90;99.90
4908;DHT22;64375;51.540;7.364;2024-02-26T08:40:44;7.90;99.90
4908;DHT22;64375;51.540;7.364;2024-02-26T08:43:11;7.90;99.90
4908;DHT22;64375;51.540;7.364;2024-02-26T08:45:42;7.80;99.90
4908;DHT22;64375;51.540;7.364;2024-02-26T08:48:17;7.90;99.90
4908;DHT22;64375;51.540;7.364;2024-02-26T08:50:48;7.90;99.90
4908;DHT22;64375;51.540;7.364;2024-02-26T08:53:20;7.90;99.90
4908;DHT22;64375;51.540;7.364;2024-02-26T08:56:00;7.90;99.90
4908;DHT22;64375;51.540;7.364;2024-02-26T08:58:29;7.90;99.90
4908;DHT22;64375;51.540;7.364;2024-02-26T09:00:57;7.90;99.90
4908;DHT22;64375;51.540;7.364;2024-02-26T09:03:27;7.90;99.90
4908;DHT22;64375;51.540;7.364;2024-02-26T09:06:03;7.90;99.90
4908;DHT22;64375;51.540;7.364;2024-02-26T09:08:42;7.90;99.90
4908;DHT22;64375;51.540;7.364;2024-02-26T09:11:12;7.80;99.90
4908;DHT22;64375;51.540;7.364;2024-02-26T09:13:44;7.80;99.90
4908;DHT22;64375;51.540;7.364;2024-02-26T09:16:12;7.90;99.90
4908;DHT22;64375;51.540;7.364;2024-02-26T09:18:44;7.90;99.90
4908;DHT22;64375;51.540;7.364;2024-02-26T09:21:14;7.80;99.90
4908;DHT22;64375;51.540;7.364;2024-02-26T09:23:42;7.80;99.90
4908;DHT22;64375;51.540;7.364;2024-02-26T09:26:19;7.80;99.90
4908;DHT22;64375;51.540;7.364;2024-02-26T09:28:48;7.90;99.90
4908;DHT22;64375;51.540;7.364;2024-02-26T09:31:17;7.90;99.90
4908;DHT22;64375;51.540;7.364;2024-02-26T09:33:53;7.90;99.90
4908;DHT22;64375;51.540;7.364;2024-02-26T09:36:25;8.00;99.90
4908;DHT22;64375;51.540;7.364;2024-02-26T09:39:06;8.00;99.90
4908;DHT22;64375;51.540;7.364;2024-02-26T09:41:49;8.00;99.90
4908;DHT22;64375;51.540;7.364;2024-02-26T09:44:19;8.00;99.90
4908;DHT22;64375;51.540;7.364;2024-02-26T09:46:48;7.90;99.90
4908;DHT22;64375;51.540;7.364;2024-02-26T09:49:19;7.90;99.90
4908;DHT22;64375;51.540;7.364;2024-02-26T09:51:54;7.90;99.90
4908;DHT22;64375;51.540;7.364;2024-02-26T09:54:30;7.90;99.90
4908;DHT22;64375;51.540;7.364;2024-02-26T09:57:00;8.00;99.90
4908;DHT22;64375;51.540;7.364;2024-02-26T09:59:35;8.00;99.90
4908;DHT22;64375;51.540;7.364;2024-02-26T10:02:09;8.00;99.90
4908;DHT22;64375;51.540;7.364;2024-02-26T10:04:47;8.00;99.90
4908;DHT22;64375;51.540;7.364;2024-02-26T10:07:21;8.00;99.90
4908;DHT22;64375;51.540;7.364;2024-02-26T10:09:56;8.00;99.90
4908;DHT22;64375;51.540;7.364;2024-02-26T10:12:24;8.10;99.90
4908;DHT22;64375;51.540;7.364;2024-02-26T10:14:55;8.10;99.90
4908;DHT22;64375;51.540;7.364;2024-02-26T10:17:30;8.10;99.90
4908;DHT22;64375;51.540;7.364;2024-02-26T10:20:14;8.20;99.90
4908;DHT22;64375;51.540;7.364;2024-02-26T10:22:43;8.20;99.90
4908;DHT22;64375;51.540;7.364;2024-02-26T10:25:14;8.10;99.90
4908;DHT22;64375;51.540;7.364;2024-02-26T10:27:42;8.20;99.90
4908;DHT22;64375;51.540;7.364;2024-02-26T10:30:16;8.20;99.90
4908;DHT22;64375;51.540;7.364;2024-02-26T10:32:47;8.20;99.90
4908;DHT22;64375;51.540;7.364;2024-02-26T10:35:17;8.20;99.90
4908;DHT22;64375;51.540;7.364;2024-02-26T10:37:48;8.20;99.90
4908;DHT22;64375;51.540;7.364;2024-02-26T10:40:17;8.30;99.90
4908;DHT22;64375;51.540;7.364;2024-02-26T10:42:45;8.30;99.90
4908;DHT22;64375;51.540;7.364;2024-02-26T10:45:13;8.20;99.90
4908;DHT22;64375;51.540;7.364;2024-02-26T10:47:41;8.20;99.90
4908;DHT22;64375;51.540;7.364;2024-02-26T10:50:10;8.20;99.90
4908;DHT22;64375;51.540;7.364;2024-02-26T10:52:42;8.20;99.90
4908;DHT22;64375;51.540;7.364;2024-02-26T10:55:15;8.30;99.90
4908;DHT22;64375;51.540;7.364;2024-02-26T10:57:46;8.40;99.90
4908;DHT22;64375;51.540;7.364;2024-02-26T11:00:16;8.60;99.90
4908;DHT22;64375;51.540;7.364;2024-02-26T11:02:45;8.60;99.90
4908;DHT22;64375;51.540;7.364;2024-02-26T11:05:17;8.60;99.90
4908;DHT22;64375;51.540;7.364;2024-02-26T11:07:47;8.60;99.90
4908;DHT22;64375;51.540;7.364;2024-02-26T11:10:17;8.60;99.90
4908;DHT22;64375;51.540;7.364;2024-02-26T11:12:46;8.60;99.90
4908;DHT22;64375;51.540;7.364;2024-02-26T11:15:17;8.60;99.90
4908;DHT22;64375;51.540;7.364;2024-02-26T11:17:49;8.60;99.90
4908;DHT22;64375;51.540;7.364;2024-02-26T11:20:23;8.50;99.90
4908;DHT22;64375;51.540;7.364;2024-02-26T11:22:52;8.50;99.90
4908;DHT22;64375;51.540;7.364;2024-02-26T11:25:20;8.50;99.90
4908;DHT22;64375;51.540;7.364;2024-02-26T11:27:52;8.50;99.90
4908;DHT22;64375;51.540;7.364;2024-02-26T11:30:22;8.50;99.90
4908;DHT22;64375;51.540;7.364;2024-02-26T11:33:00;8.50;99.90
4908;DHT22;64375;51.540;7.364;2024-02-26T11:35:34;8.50;99.90
4908;DHT22;64375;51.540;7.364;2024-02-26T11:38:20;8.50;99.90
4908;DHT22;64375;51.540;7.364;2024-02-26T11:40:48;8.40;99.90
4908;DHT22;64375;51.540;7.364;2024-02-26T11:43:17;8.40;99.90
4908;DHT22;64375;51.540;7.364;2024-02-26T11:45:54;8.40;99.90
4908;DHT22;64375;51.540;7.364;2024-02-26T11:48:28;8.40;99.90
4908;DHT22;64375;51.540;7.364;2024-02-26T11:51:06;8.40;99.90
4908;DHT22;64375;51.540;7.364;2024-02-26T11:53:49;8.40;99.90
4908;DHT22;64375;51.540;7.364;2024-02-26T11:56:21;8.40;99.90
4908;DHT22;64375;51.540;7.364;2024-02-26T11:58:58;8.50;99.90
4908;DHT22;64375;51.540;7.364;2024-02-26T12:01:46;8.50;99.90
4908;DHT22;64375;51.540;7.364;2024-02-26T12:04:23;8.50;99.90
4908;DHT22;64375;51.540;7.364;2024-02-26T12:06:55;8.40;99.90
4908;DHT22;64375;51.540;7.364;2024-02-26T12:09:36;8.50;99.90
4908;DHT22;64375;51.540;7.364;2024-02-26T12:12:06;8.50;99.90
4908;DHT22;64375;51.540;7.364;2024-02-26T12:14:39;8.60;99.90
4908;DHT22;64375;51.540;7.364;2024-02-26T12:17:24;8.60;99.90
4908;DHT22;64375;51.540;7.364;2024-02-26T12:19:55;8.50;99.90
4908;DHT22;64375;51.540;7.364;2024-02-26T12:22:26;8.60;99.90
4908;DHT22;64375;51.540;7.364;2024-02-26T12:24:59;8.60;99.90
4908;DHT22;64375;51.540;7.364;2024-02-26T12:27:29;8.50;99.90
4908;DHT22;64375;51.540;7.364;2024-02-26T12:29:57;8.60;99.90
4908;DHT22;64375;51.540;7.364;2024-02-26T12:32:29;8.60;99.90
4908;DHT22;64375;51.540;7.364;2024-02-26T12:34:57;8.60;99.90
4908;DHT22;64375;51.540;7.364;2024-02-26T12:37:29;8.60;99.90
4908;DHT22;64375;51.540;7.364;2024-02-26T12:40:01;8.50;99.90
4908;DHT22;64375;51.540;7.364;2024-02-26T12:42:29;8.40;99.90
4908;DHT22;64375;51.540;7.364;2024-02-26T12:44:59;8.40;99.90
4908;DHT22;64375;51.540;7.364;2024-02-26T12:47:28;8.40;99.90
4908;DHT22;64375;51.540;7.364;2024-02-26T12:49:57;8.40;99.90
4908;DHT22;64375;51.540;7.364;2024-02-26T12:52:28;8.40;99.90
4908;DHT22;64375;51.540;7.364;2024-02-26T12:54:56;8.40;99.90
4908;DHT22;64375;51.540;7.364;2024-02-26T12:57:28;8.40;99.90
4908;DHT22;64375;51.540;7.364;2024-02-26T12:59:57;8.40;99.90
4908;DHT22;64375;51.540;7.364;2024-02-26T13:02:26;8.40;99.90
4908;DHT22;64375;51.540;7.364;2024-02-26T13:04:54;8.40;99.90
4908;DHT22;64375;51.540;7.364;2024-02-26T13:07:29;8.40;99.90
4908;DHT22;64375;51.540;7.364;2024-02-26T13:10:00;8.30;99.90
4908;DHT22;64375;51.540;7.364;2024-02-26T13:12:29;8.30;99.90
4908;DHT22;64375;51.540;7.364;2024-02-26T13:15:01;8.30;99.90
4908;DHT22;64375;51.540;7.364;2024-02-26T13:17:31;8.30;99.90
4908;DHT22;64375;51.540;7.364;2024-02-26T13:20:00;8.30;99.90
4908;DHT22;64375;51.540;7.364;2024-02-26T13:22:30;8.40;99.90
4908;DHT22;64375;51.540;7.364;2024-02-26T13:25:00;8.40;99.90
4908;DHT22;64375;51.540;7.364;2024-02-26T13:27:37;8.40;99.90
4908;DHT22;64375;51.540;7.364;2024-02-26T13:30:08;8.40;99.90
4908;DHT22;64375;51.540;7.364;2024-02-26T13:32:40;8.50;99.90
4908;DHT22;64375;51.540;7.364;2024-02-26T13:35:11;8.50;99.90
4908;DHT22;64375;51.540;7.364;2024-02-26T13:37:45;8.60;99.90
4908;DHT22;64375;51.540;7.364;2024-02-26T13:40:23;8.60;99.90
4908;DHT22;64375;51.540;7.364;2024-02-26T13:42:54;8.70;99.90
4908;DHT22;64375;51.540;7.364;2024-02-26T13:45:34;8.70;99.90
4908;DHT22;64375;51.540;7.364;2024-02-26T13:48:04;8.70;99.90
4908;DHT22;64375;51.540;7.364;2024-02-26T13:50:32;8.70;99.90
4908;DHT22;64375;51.540;7.364;2024-02-26T13:53:03;8.70;99.90
4908;DHT22;64375;51.540;7.364;2024-02-26T13:55:34;8.70;99.90
4908;DHT22;64375;51.540;7.364;2024-02-26T13:58:06;8.70;99.90
4908;DHT22;64375;51.540;7.364;2024-02-26T14:00:37;8.70;99.90
4908;DHT22;64375;51.540;7.364;2024-02-26T14:03:08;8.70;99.90
4908;DHT22;64375;51.540;7.364;2024-02-26T14:05:43;8.70;99.90
4908;DHT22;64375;51.540;7.364;2024-02-26T14:08:20;8.80;99.90
4908;DHT22;64375;51.540;7.364;2024-02-26T14:10:48;8.80;99.90
4908;DHT22;64375;51.540;7.364;2024-02-26T14:13:17;8.80;99.90
4908;DHT22;64375;51.540;7.364;2024-02-26T14:15:51;8.80;99.90
4908;DHT22;64375;51.540;7.364;2024-02-26T14:18:19;8.80;99.90
4908;DHT22;64375;51.540;7.364;2024-02-26T14:20:47;8.80;99.90
4908;DHT22;64375;51.540;7.364;2024-02-26T14:23:15;8.80;99.90
4908;DHT22;64375;51.540;7.364;2024-02-26T14:25:49;8.90;99.90
4908;DHT22;64375;51.540;7.364;2024-02-26T14:28:29;8.90;99.90
4908;DHT22;64375;51.540;7.364;2024-02-26T14:31:06;8.90;99.90
4908;DHT22;64375;51.540;7.364;2024-02-26T14:33:37;8.90;99.90
4908;DHT22;64375;51.540;7.364;2024-02-26T14:36:07;9.00;99.90
4908;DHT22;64375;51.540;7.364;2024-02-26T14:38:35;8.90;99.90
4908;DHT22;64375;51.540;7.364;2024-02-26T14:41:09;9.00;99.90
4908;DHT22;64375;51.540;7.364;2024-02-26T14:43:43;9.00;99.90
4908;DHT22;64375;51.540;7.364;2024-02-26T14:46:14;9.10;99.90
4908;DHT22;64375;51.540;7.364;2024-02-26T14:48:45;9.10;99.90
4908;DHT22;64375;51.540;7.364;2024-02-26T14:51:16;9.10;99.90
4908;DHT22;64375;51.540;7.364;2024-02-26T14:53:44;9.10;99.90
4908;DHT22;64375;51.540;7.364;2024-02-26T14:56:12;9.10;99.90
4908;DHT22;64375;51.540;7.364;2024-02-26T14:58:40;9.10;99.90
4908;DHT22;64375;51.540;7.364;2024-02-26T15:01:09;9.10;99.90
4908;DHT22;64375;51.540;7.364;2024-02-26T15:03:38;9.10;99.90
4908;DHT22;64375;51.540;7.364;2024-02-26T15:06:18;9.10;99.90
4908;DHT22;64375;51.540;7.364;2024-02-26T15:08:48;9.20;99.90
4908;DHT22;64375;51.540;7.364;2024-02-26T15:11:18;9.20;99.90
4908;DHT22;64375;51.540;7.364;2024-02-26T15:13:46;9.20;99.90
4908;DHT22;64375;51.540;7.364;2024-02-26T15:16:18;9.20;99.90
4908;DHT22;64375;51.540;7.364;2024-02-26T15:18:50;9.20;99.90
4908;DHT22;64375;51.540;7.364;2024-02-26T15:21:18;9.20;99.90
4908;DHT22;64375;51.540;7.364;2024-02-26T15:23:49;9.30;99.90
4908;DHT22;64375;51.540;7.364;2024-02-26T15:26:36;9.30;99.90
4908;DHT22;64375;51.540;7.364;2024-02-26T15:29:07;9.30;99.90
4908;DHT22;64375;51.540;7.364;2024-02-26T15:31:37;9.30;99.90
4908;DHT22;64375;51.540;7.364;2024-02-26T15:34:08;9.40;99.90
4908;DHT22;64375;51.540;7.364;2024-02-26T15:36:36;9.40;99.90
4908;DHT22;64375;51.540;7.364;2024-02-26T15:39:10;9.40;99.90
4908;DHT22;64375;51.540;7.364;2024-02-26T15:41:38;9.30;99.90
4908;DHT22;64375;51.540;7.364;2024-02-26T15:44:14;9.30;99.90
4908;DHT22;64375;51.540;7.364;2024-02-26T15:46:45;9.20;99.90
4908;DHT22;64375;51.540;7.364;2024-02-26T15:49:13;9.10;99.90
4908;DHT22;64375;51.540;7.364;2024-02-26T15:51:42;9.10;99.90
4908;DHT22;64375;51.540;7.364;2024-02-26T15:54:13;9.10;99.90
4908;DHT22;64375;51.540;7.364;2024-02-26T15:56:41;9.10;99.90
4908;DHT22;64375;51.540;7.364;2024-02-26T15:59:17;9.10;99.90
4908;DHT22;64375;51.540;7.364;2024-02-26T16:01:47;9.10;99.90
4908;DHT22;64375;51.540;7.364;2024-02-26T16:04:16;9.10;99.90
4908;DHT22;64375;51.540;7.364;2024-02-26T16:06:45;9.00;99.90
4908;DHT22;64375;51.540;7.364;2024-02-26T16:09:17;9.10;99.90
4908;DHT22;64375;51.540;7.364;2024-02-26T16:11:45;9.20;99.90
4908;DHT22;64375;51.540;7.364;2024-02-26T16:14:33;9.20;99.90
4908;DHT22;64375;51.540;7.364;2024-02-26T16:17:18;9.30;99.90
4908;DHT22;64375;51.540;7.364;2024-02-26T16:19:53;9.20;99.90
4908;DHT22;64375;51.540;7.364;2024-02-26T16:22:21;9.20;99.90
4908;DHT22;64375;51.540;7.364;2024-02-26T16:24:53;9.20;99.90
4908;DHT22;64375;51.540;7.364;2024-02-26T16:27:24;9.20;99.90
4908;DHT22;64375;51.540;7.364;2024-02-26T16:29:58;9.20;99.90